Northridge, Ohio
Current Conditions -  °F | °C
As of 10:56 PM on Friday 24 Oct 2014 (Local Time) from KDAY Reporting Station
Clear Clear  
Wind Chill: 50°   Ceiling: Unl
Heat Index: 50°   Visibility: 10mi
Dew Point: 41°   Wind: 5mph
Humidity: 71%   Direction: 220°SW
Pressure: 30.04"   Gusts: NA
Location:  39.8407°N, 84.2114°W
Report Text: KDAY 250256Z 22004KT 10SM CLR 10/05 A3004 RMK AO2 SLP172 T01000050 55002
Loading
Personal Weather Stations






























Interactive Weather Map
Tropical Storm Tracking
New forecast layout! Learn more

10-Day Weather Forecast

Advertisements
Track Severe Weather on mobile